Terminal Aerodrome Forecast
Issued by NWS Hastings, NE

Home | Current Version | Previous Version | Text Only | Print | Product List | Glossary On
Versions: 1 2 3 4 5 6 7 8 9 10 11 12 13 14 15 16 17 18 19 20 21 22 23 24 25 26 27 28 29 30 31 32
000
FTUS45 KGID 182320
TAFEAR
TAF
KEAR 182320Z 1900/1924 33020G30KT P6SM VCSH SCT080
     FM190100 35015KT P6SM SCT080
     FM190500 34006KT P6SM SKC
     FM192200 29010KT P6SM FEW250=

USA.gov is the U.S. government's official web portal to all federal, state and local government web resources and services.